OPKC/KHI METAR and TAF weather

Enter ICAO airport designator
Station Type Date Time Source
OPKC METAR 2020/12/05 05:30 UTC NOAA

OPKC 050530Z 33002KT 2000 BR FEW020 25/20 Q1014 BECMG 3000 BR


Station Type Date Time Source
OPKC Decoded METAR 2020/12/05 05:30 UTC NOAA

Karachi Airport, Pakistan (OPKC) 24-54N 067-08E 22M
Dec 05, 2020 - 12:30 AM EST / 2020.12.05 0530 UTC
Wind: from the NNW (330 degrees) at 2 MPH (2 KT):0
Visibility: 1 mile(s):0
Sky conditions: mostly clear
Weather: mist
Temperature: 77 F (25 C)
Dew Point: 68 F (20 C)
Relative Humidity: 73%
Pressure (altimeter): 29.94 in. Hg (1014 hPa)
ob: OPKC 050530Z 33002KT 2000 BR FEW020 25/20 Q1014 BECMG 3000 BR
cycle: 5

Station Type Date Time Source
OPKC TAF 2020/12/05 06:56 UTC NOAA

TAF OPKC 050330Z 0506/0612 23010KT 6000 NSC
TEMPO 0506/0509 33007KT 5000 HZ NSC
FM051800 33006KT 4000 FU NSC
TEMPO 0600/0604 03005KT 1000 BR NSC
FM060600 07010KT 6000 NSC

Example: see airport list